Time;durP1;ratioP1;P1;durP2;ratioP2;P2;SDS_P1;SDS_P2;PMS_P1;PMS_P2;Temp;Humidity;BMP_temperature;BMP_pressure;BME280_temperature;BME280_humidity;BME280_pressure;Samples;Min_cycle;Max_cycle;Signal;HPM_P1;HPM_P2
2022/11/05 00:10:48;;;;;;;19.15;14.10;;;;;;;9.48;66.07;99527.75;1773874;80;23162;-41
2022/11/05 00:19:05;;;;;;;24.07;13.83;;;;;;;9.28;65.85;99527.97;1773854;80;21063;-41
2022/11/05 00:26:46;;;;;;;19.05;13.58;;;;;;;8.83;66.12;99531.77;1773777;80;20921;-41
2022/11/05 00:29:14;;;;;;;18.15;14.43;;;;;;;8.72;65.99;99531.45;1773975;80;20973;-41
2022/11/05 00:31:40;;;;;;;17.23;13.80;;;;;;;8.72;65.92;99537.42;1773908;80;20937;-41
2022/11/05 00:34:07;;;;;;;17.98;13.50;;;;;;;8.69;66.08;99530.00;1773983;80;20953;-41
2022/11/05 00:36:34;;;;;;;17.52;14.10;;;;;;;8.65;66.25;99520.45;1773931;80;21129;-41
2022/11/05 00:39:01;;;;;;;23.40;14.18;;;;;;;8.59;66.17;99527.22;1773817;80;21000;-41
2022/11/05 00:41:27;;;;;;;20.00;14.20;;;;;;;8.53;66.32;99533.19;1774109;80;21510;-41
2022/11/05 00:46:42;;;;;;;18.00;14.38;;;;;;;8.43;66.03;99533.66;1773877;80;20993;-40
2022/11/05 00:54:41;;;;;;;20.23;13.40;;;;;;;8.19;66.12;99535.23;1773741;80;20961;-41
2022/11/05 00:57:08;;;;;;;16.67;12.35;;;;;;;8.18;66.13;99530.95;1775944;80;20945;-41
2022/11/05 00:59:35;;;;;;;20.00;13.90;;;;;;;8.20;66.03;99535.47;1776831;80;21013;-41
2022/11/05 01:02:02;;;;;;;17.12;13.15;;;;;;;8.19;65.91;99531.19;1776905;80;21467;-41
2022/11/05 01:04:29;;;;;;;19.00;13.85;;;;;;;8.18;65.83;99530.95;1776683;80;21071;-41
2022/11/05 01:06:56;;;;;;;18.40;13.53;;;;;;;8.16;65.62;99534.58;1776911;80;20984;-41
2022/11/05 01:09:23;;;;;;;20.37;13.60;;;;;;;8.13;65.59;99540.63;1776736;80;21056;-41
2022/11/05 01:11:51;;;;;;;19.42;13.72;;;;;;;8.10;65.55;99531.08;1776864;80;21008;-41
2022/11/05 01:14:18;;;;;;;18.65;13.35;;;;;;;8.02;65.62;99534.13;1776904;80;21252;-41
2022/11/05 01:16:45;;;;;;;20.57;14.43;;;;;;;7.97;65.47;99534.36;1776765;80;21023;-41
2022/11/05 01:19:12;;;;;;;17.82;14.35;;;;;;;7.90;65.17;99532.77;1777023;80;21000;-41
2022/11/05 01:21:39;;;;;;;18.30;13.30;;;;;;;7.83;65.45;99529.30;1776866;80;21024;-41
2022/11/05 01:24:09;;;;;;;19.15;14.25;;;;;;;7.74;65.67;99537.27;1776761;80;21033;-41
2022/11/05 01:26:35;;;;;;;17.42;12.90;;;;;;;7.65;65.87;99531.19;1776903;80;21217;-41
2022/11/05 01:29:02;;;;;;;18.17;12.78;;;;;;;7.61;65.90;99537.01;1776797;80;21558;-41
2022/11/05 01:31:30;;;;;;;19.35;13.45;;;;;;;7.59;65.98;99536.57;1776746;80;20941;-41
2022/11/05 01:33:58;;;;;;;19.30;14.47;;;;;;;7.55;66.09;99531.62;1776867;80;20929;-41
2022/11/05 01:36:26;;;;;;;22.70;16.02;;;;;;;7.48;66.56;99539.47;1776260;80;21537;-41
2022/11/05 01:38:53;;;;;;;22.27;16.73;;;;;;;7.43;66.91;99546.66;1776831;80;21193;-41
2022/11/05 01:41:20;;;;;;;23.85;17.12;;;;;;;7.37;67.18;99551.23;1776605;80;20973;-41
2022/11/05 01:44:02;;;;;;;29.30;18.75;;;;;;;7.31;67.60;99546.61;1776805;80;20965;-41
2022/11/05 01:46:36;;;;;;;32.58;21.00;;;;;;;7.28;68.18;99543.80;1776680;80;21479;-41
2022/11/05 01:49:23;;;;;;;28.20;21.90;;;;;;;7.30;68.68;99541.02;1776787;80;20933;-41
2022/11/05 01:51:50;;;;;;;32.42;23.15;;;;;;;7.40;69.28;99536.55;1776770;80;21189;-41
2022/11/05 01:54:18;;;;;;;36.20;25.12;;;;;;;7.52;69.75;99527.67;1776699;80;20968;-41
2022/11/05 01:56:49;;;;;;;34.20;25.85;;;;;;;7.55;69.94;99528.92;1775520;80;20909;-41
2022/11/05 01:59:29;;;;;;;34.88;24.65;;;;;;;7.58;70.15;99528.25;1773926;80;20937;-41
2022/11/05 02:01:57;;;;;;;30.97;22.62;;;;;;;7.60;70.33;99533.52;1773733;80;21395;-41
2022/11/05 02:04:31;;;;;;;30.65;21.95;;;;;;;7.59;70.13;99546.02;1773676;80;21138;-41
2022/11/05 02:06:58;;;;;;;27.02;21.65;;;;;;;7.60;70.10;99547.59;1773690;80;21530;-41
2022/11/05 02:09:32;;;;;;;27.55;21.62;;;;;;;7.70;70.04;99545.79;1773648;80;20965;-41
2022/11/05 02:11:59;;;;;;;26.40;19.80;;;;;;;7.74;69.87;99540.77;1773601;80;21613;-41
2022/11/05 02:14:27;;;;;;;29.77;22.07;;;;;;;7.73;69.95;99528.39;1773708;80;21032;-41
2022/11/05 02:17:32;;;;;;;30.62;21.82;;;;;;;7.73;69.79;99512.75;1773729;80;21075;-41
2022/11/05 02:20:42;;;;;;;31.33;22.82;;;;;;;7.66;69.78;99511.16;1773722;80;20981;-41
2022/11/05 02:23:23;;;;;;;28.92;21.90;;;;;;;7.50;70.02;99511.05;1773503;80;22060;-41
2022/11/05 02:26:05;;;;;;;29.12;22.07;;;;;;;7.42;70.36;99500.56;1773283;80;21048;-41
2022/11/05 02:29:11;;;;;;;29.00;22.07;;;;;;;7.38;70.49;99501.02;1773771;80;21032;-41
2022/11/05 02:31:48;;;;;;;29.77;21.97;;;;;;;7.30;70.70;99505.95;1773577;80;21240;-41
2022/11/05 02:34:47;;;;;;;33.98;24.07;;;;;;;7.16;71.03;99514.91;1773691;80;20930;-41
2022/11/05 02:37:40;;;;;;;31.25;21.02;;;;;;;7.07;71.29;99519.56;1773909;80;27110;-41
2022/11/05 02:40:30;;;;;;;29.25;20.97;;;;;;;6.95;71.48;99521.67;1773737;80;21001;-41
2022/11/05 02:43:31;;;;;;;32.80;22.67;;;;;;;6.93;71.76;99527.16;1773892;80;21088;-41
2022/11/05 02:46:12;;;;;;;33.65;22.02;;;;;;;6.98;72.02;99529.09;1769896;80;21237;-41
2022/11/05 02:49:07;;;;;;;38.55;23.30;;;;;;;7.01;71.93;99531.70;1773577;80;21612;-41
2022/11/05 02:51:50;;;;;;;47.20;21.60;;;;;;;7.00;71.93;99532.81;1773137;80;20953;-41
2022/11/05 02:54:28;;;;;;;27.52;20.65;;;;;;;6.96;71.87;99536.73;1773090;80;21036;-41
2022/11/05 02:56:55;;;;;;;27.93;20.12;;;;;;;7.01;71.96;99533.60;1773788;80;21894;-41
2022/11/05 02:59:21;;;;;;;54.98;21.10;;;;;;;7.05;71.82;99538.55;1773904;80;21234;-41
2022/11/05 03:01:48;;;;;;;44.15;20.40;;;;;;;7.04;72.00;99541.80;1773789;80;20984;-41
2022/11/05 03:04:16;;;;;;;37.98;20.57;;;;;;;7.03;72.15;99540.22;1773840;80;21017;-41
2022/11/05 03:07:25;;;;;;;51.63;18.37;;;;;;;7.03;72.30;99542.92;1773710;80;21618;-41
2022/11/05 03:10:12;;;;;;;39.08;19.00;;;;;;;7.07;72.45;99543.83;1773277;80;21012;-41
2022/11/05 03:13:05;;;;;;;28.52;17.92;;;;;;;7.13;72.16;99546.55;1772839;80;21101;-41
2022/11/05 03:15:55;;;;;;;38.40;19.00;;;;;;;7.14;72.11;99542.74;1772672;80;20937;-41
2022/11/05 03:18:44;;;;;;;32.05;19.35;;;;;;;7.14;72.02;99548.14;1773791;80;21027;-41
2022/11/05 03:21:34;;;;;;;37.80;21.25;;;;;;;7.08;72.27;99549.45;1773707;80;20929;-41
2022/11/05 03:24:09;;;;;;;27.15;19.92;;;;;;;7.05;72.43;99549.34;1772663;80;21041;-41
2022/11/05 03:26:44;;;;;;;32.00;18.65;;;;;;;7.04;72.57;99557.19;1773866;80;21784;-41
2022/11/05 03:29:16;;;;;;;30.40;17.73;;;;;;;7.09;72.60;99546.99;1773654;80;21291;-41
2022/11/05 03:31:43;;;;;;;27.52;18.17;;;;;;;7.10;72.83;99545.88;1772618;80;21015;-41
2022/11/05 03:34:11;;;;;;;30.02;18.30;;;;;;;7.09;72.85;99552.38;1773800;80;21024;-41
2022/11/05 03:36:41;;;;;;;57.67;18.12;;;;;;;7.01;73.06;99550.56;1773816;80;21013;-41
2022/11/05 03:39:11;;;;;;;28.40;17.17;;;;;;;6.98;73.33;99557.95;1773876;80;21086;-41
2022/11/05 03:41:42;;;;;;;33.30;16.97;;;;;;;6.95;73.54;99560.76;1773763;80;21471;-41
2022/11/05 03:44:10;;;;;;;30.32;17.75;;;;;;;7.02;73.73;99554.81;1774290;80;21028;-41
2022/11/05 03:46:44;;;;;;;37.17;17.37;;;;;;;7.07;73.74;99551.16;1773756;80;21597;-41
2022/11/05 03:49:21;;;;;;;35.28;17.73;;;;;;;7.04;73.74;99556.63;1773867;80;21016;-41
2022/11/05 03:51:56;;;;;;;28.32;17.82;;;;;;;7.01;73.93;99560.00;1773659;80;21254;-41
2022/11/05 03:54:23;;;;;;;23.67;16.15;;;;;;;6.99;74.20;99567.61;1745866;80;21514;-41
2022/11/05 03:56:59;;;;;;;27.27;17.17;;;;;;;7.03;74.37;99566.39;1773715;80;21522;-41
2022/11/05 03:59:26;;;;;;;27.87;16.25;;;;;;;7.11;74.26;99567.69;1776378;80;21084;-41
2022/11/05 04:01:53;;;;;;;32.88;17.65;;;;;;;7.14;74.24;99564.31;1776822;80;21095;-41
2022/11/05 04:04:20;;;;;;;41.80;18.35;;;;;;;7.15;74.43;99567.24;1750593;80;21086;-41
2022/11/05 04:15:03;;;;;;;33.45;17.20;;;;;;;7.24;74.35;99556.38;1808870;79;20922;-41
2022/11/05 04:17:30;;;;;;;24.52;17.30;;;;;;;7.24;74.46;99555.81;1808932;79;21070;-41
2022/11/05 04:25:29;;;;;;;23.00;17.60;;;;;;;7.29;74.54;99571.00;1803151;79;21562;-41
2022/11/05 04:27:59;;;;;;;29.37;17.45;;;;;;;7.31;74.53;99576.27;1776874;80;21053;-41
2022/11/05 04:30:26;;;;;;;;;;;;;;;7.41;74.55;99582.60;1779467;80;21160;-41
2022/11/05 04:33:10;;;;;;;48.60;17.00;;;;;;;7.45;74.68;99587.34;1776702;80;20163;-41
2022/11/05 04:35:45;;;;;;;42.48;17.52;;;;;;;7.38;74.82;99592.72;1776500;80;21024;-41
2022/11/05 04:38:16;;;;;;;26.15;17.55;;;;;;;7.41;74.77;99592.59;1776675;80;20960;-41
2022/11/05 04:40:45;;;;;;;36.00;18.17;;;;;;;7.43;74.66;99590.37;1777181;80;21848;-41
2022/11/05 04:43:17;;;;;;;34.23;18.57;;;;;;;7.47;74.48;99599.92;1776868;80;21511;-41
2022/11/05 04:45:44;;;;;;;29.18;18.05;;;;;;;7.49;74.50;99605.79;1776674;80;20930;-41
2022/11/05 04:48:11;;;;;;;28.57;18.00;;;;;;;7.49;74.81;99600.39;1776676;80;21538;-41
2022/11/05 04:50:38;;;;;;;45.45;18.67;;;;;;;7.53;74.75;99612.09;1770058;80;21064;-41
2022/11/05 04:53:05;;;;;;;24.70;17.85;;;;;;;7.53;74.71;99610.19;1776918;80;21525;-41
2022/11/05 04:55:32;;;;;;;26.20;18.37;;;;;;;7.56;74.84;99613.55;1776760;80;21096;-41
2022/11/05 04:57:59;;;;;;;37.90;19.27;;;;;;;7.64;74.65;99615.95;1776356;80;21021;-41
2022/11/05 05:00:26;;;;;;;36.03;18.95;;;;;;;7.67;74.48;99615.28;1774103;80;20984;-41
2022/11/05 05:02:53;;;;;;;33.30;19.23;;;;;;;7.66;74.63;99617.74;1773961;80;21033;-41
2022/11/05 05:05:21;;;;;;;41.73;20.55;;;;;;;7.66;74.56;99617.74;1774158;80;21029;-41
2022/11/05 05:07:48;;;;;;;18.98;13.10;;;;;;;7.60;74.36;99613.11;1774223;80;21185;-41
2022/11/05 05:10:16;;;;;;;25.65;18.80;;;;;;;7.54;74.54;99616.38;1774073;80;21076;-41
2022/11/05 05:12:44;;;;;;;37.58;19.27;;;;;;;7.56;74.56;99620.30;1773971;80;21002;-41
2022/11/05 05:15:11;;;;;;;37.90;18.32;;;;;;;7.59;74.64;99610.77;1774104;80;21482;-41
2022/11/05 05:17:37;;;;;;;38.67;17.77;;;;;;;7.59;74.72;99629.66;1774081;80;21585;-41
2022/11/05 06:44:38;;;;;;;22.95;17.12;;;;;;;8.88;73.89;99709.17;1755286;80;22066;-40
2022/11/05 06:47:04;;;;;;;22.02;17.05;;;;;;;9.04;73.21;99710.06;1748815;81;21004;-40
2022/11/05 06:49:33;;;;;;;22.75;17.62;;;;;;;9.02;73.07;99718.51;1764692;81;21133;-40
2022/11/05 06:51:59;;;;;;;22.98;17.57;;;;;;;8.96;72.77;99709.05;1764450;81;21582;-40
2022/11/05 06:54:26;;;;;;;22.48;17.20;;;;;;;8.91;72.73;99717.38;1758780;81;21536;-41
2022/11/05 06:56:54;;;;;;;26.65;19.05;;;;;;;8.88;72.68;99720.77;1764662;81;21011;-40
2022/11/05 06:59:21;;;;;;;26.12;18.60;;;;;;;8.81;72.56;99715.13;1764578;81;20976;-40
2022/11/05 07:01:47;;;;;;;27.87;18.15;;;;;;;8.76;72.58;99719.44;1764692;81;21195;-40
2022/11/05 07:04:15;;;;;;;22.50;17.82;;;;;;;8.77;72.61;99710.74;1764735;81;21505;-40
2022/11/05 07:06:42;;;;;;;22.70;17.77;;;;;;;8.74;72.78;99713.58;1764519;81;20976;-40
2022/11/05 07:09:09;;;;;;;24.63;17.55;;;;;;;8.74;73.10;99704.11;1764909;81;20972;-41
2022/11/05 07:11:36;;;;;;;23.87;18.50;;;;;;;8.76;73.18;99699.17;1764862;81;21083;-40
2022/11/05 07:14:03;;;;;;;21.37;16.07;;;;;;;8.78;73.29;99700.16;1764891;81;21177;-40
2022/11/05 07:16:31;;;;;;;19.12;14.60;;;;;;;8.80;73.17;99696.01;1764879;81;20940;-40
2022/11/05 07:18:58;;;;;;;21.50;16.05;;;;;;;8.89;72.92;99698.58;1764764;81;20971;-41
2022/11/05 07:21:25;;;;;;;18.95;15.65;;;;;;;8.90;72.70;99697.47;1764754;81;20992;-41
2022/11/05 07:23:53;;;;;;;18.50;14.83;;;;;;;8.86;72.65;99687.87;1764728;81;20996;-40
2022/11/05 07:26:19;;;;;;;17.52;14.55;;;;;;;8.80;72.89;99693.30;1764729;81;21113;-41
2022/11/05 07:28:47;;;;;;;19.05;13.98;;;;;;;8.81;73.25;99692.16;1764489;81;21537;-41
2022/11/05 07:31:14;;;;;;;15.60;13.68;;;;;;;8.89;73.15;99693.97;1764641;81;20901;-41
2022/11/05 07:33:42;;;;;;;21.02;15.55;;;;;;;8.96;73.04;99690.11;1764380;81;21015;-41
2022/11/05 07:36:09;;;;;;;18.92;13.68;;;;;;;8.99;72.88;99695.42;1764593;81;20980;-41
2022/11/05 07:38:36;;;;;;;17.90;15.50;;;;;;;8.96;72.98;99687.41;1764599;81;21148;-41
2022/11/05 07:41:03;;;;;;;18.00;14.95;;;;;;;8.96;72.96;99698.23;1764463;81;20901;-41
2022/11/05 07:43:30;;;;;;;18.17;14.60;;;;;;;8.97;73.05;99705.22;1764450;81;21080;-41
2022/11/05 07:45:57;;;;;;;19.37;15.32;;;;;;;9.00;72.84;99711.31;1764195;81;21486;-41
2022/11/05 07:48:23;;;;;;;19.25;14.58;;;;;;;9.04;72.85;99709.50;1764029;81;21068;-41
2022/11/05 07:50:52;;;;;;;17.55;14.43;;;;;;;9.09;72.84;99721.44;1764030;81;21244;-41
2022/11/05 07:53:20;;;;;;;19.67;14.33;;;;;;;9.06;72.76;99718.05;1763951;81;20952;-41
2022/11/05 07:55:47;;;;;;;17.60;14.45;;;;;;;9.05;72.69;99726.52;1763959;81;20948;-41
2022/11/05 07:58:13;;;;;;;15.23;12.45;;;;;;;9.05;73.06;99728.64;1764056;81;21103;-41
2022/11/05 08:00:40;;;;;;;14.65;12.43;;;;;;;9.18;72.72;99723.22;1764080;81;21092;-41
2022/11/05 08:03:11;;;;;;;15.70;12.55;;;;;;;9.24;72.24;99728.06;1764091;81;22030;-41
2022/11/05 08:05:39;;;;;;;17.70;13.20;;;;;;;9.28;72.05;99725.46;1763954;81;21052;-41
2022/11/05 08:08:07;;;;;;;15.48;12.75;;;;;;;9.27;71.84;99730.64;1764224;81;20968;-41
2022/11/05 08:10:35;;;;;;;16.50;12.60;;;;;;;9.21;71.67;99729.30;1763973;81;21510;-41
2022/11/05 08:13:03;;;;;;;17.50;12.90;;;;;;;9.12;71.72;99738.89;1764251;81;20981;-40
2022/11/05 08:15:30;;;;;;;15.65;11.03;;;;;;;9.04;72.01;99735.75;1764183;81;21136;-41
2022/11/05 08:18:04;;;;;;;17.05;11.85;;;;;;;9.09;72.15;99742.29;1764051;81;21553;-41
2022/11/05 08:20:31;;;;;;;16.82;12.68;;;;;;;9.16;71.76;99749.25;1764109;81;20979;-41
2022/11/05 08:22:59;;;;;;;17.07;12.63;;;;;;;9.13;71.24;99751.30;1764083;81;20976;-41
2022/11/05 08:25:26;;;;;;;16.00;13.18;;;;;;;9.05;71.50;99757.63;1764320;81;20945;-41
2022/11/05 08:28:03;;;;;;;17.85;14.73;;;;;;;9.03;71.46;99762.01;1764143;81;21136;-41
2022/11/05 08:30:30;;;;;;;19.62;13.95;;;;;;;8.96;71.51;99756.92;1764370;81;20964;-40
2022/11/05 08:33:02;;;;;;;18.27;13.55;;;;;;;8.92;71.61;99763.58;1764096;81;21477;-41
2022/11/05 08:35:29;;;;;;;16.82;13.58;;;;;;;8.94;71.49;99769.45;1764330;81;20988;-41
2022/11/05 08:38:01;;;;;;;19.15;14.93;;;;;;;8.89;71.76;99763.48;1764279;81;21036;-41
2022/11/05 08:40:30;;;;;;;17.55;13.85;;;;;;;8.86;71.96;99768.98;1764293;81;21122;-40
2022/11/05 08:42:59;;;;;;;20.00;15.43;;;;;;;8.83;72.25;99773.72;1763152;81;21014;-42
2022/11/05 08:45:26;;;;;;;20.02;14.93;;;;;;;8.86;72.61;99772.27;1746855;82;20969;-41
2022/11/05 08:48:03;;;;;;;16.73;13.83;;;;;;;8.94;72.40;99763.25;1746880;82;21863;-41
2022/11/05 08:50:32;;;;;;;17.45;14.60;;;;;;;8.99;72.17;99764.37;1746941;82;21570;-40
2022/11/05 08:52:59;;;;;;;17.92;14.65;;;;;;;9.01;71.95;99762.90;1746972;82;21538;-41
2022/11/05 08:55:26;;;;;;;17.98;14.73;;;;;;;8.95;71.92;99767.54;1746733;82;21091;-41
2022/11/05 08:57:58;;;;;;;17.67;14.10;;;;;;;8.86;71.88;99773.03;1746833;82;21080;-40
2022/11/05 09:00:27;;;;;;;16.23;12.65;;;;;;;8.81;72.20;99779.25;1746793;82;20937;-41
2022/11/05 09:02:54;;;;;;;15.32;12.75;;;;;;;8.81;72.44;99771.91;1747020;82;21806;-41
2022/11/05 09:05:20;;;;;;;17.12;13.80;;;;;;;8.90;72.41;99783.42;1746941;82;21129;-41
2022/11/05 09:07:48;;;;;;;17.35;13.80;;;;;;;8.95;72.21;99778.36;1746821;82;20985;-41
2022/11/05 09:10:15;;;;;;;16.60;13.93;;;;;;;8.99;72.04;99775.98;1746988;82;20989;-41
2022/11/05 09:12:42;;;;;;;17.25;14.15;;;;;;;9.00;71.94;99773.52;1746932;82;21504;-41
2022/11/05 09:15:10;;;;;;;17.32;13.58;;;;;;;9.03;71.92;99771.47;1746909;82;20997;-41
2022/11/05 09:17:39;;;;;;;15.45;12.47;;;;;;;9.02;71.69;99768.54;1747203;82;21991;-41
2022/11/05 09:20:09;;;;;;;17.80;13.43;;;;;;;9.06;71.65;99777.55;1724057;82;21009;-41
2022/11/05 09:22:35;;;;;;;14.40;12.73;;;;;;;9.07;71.23;99775.08;1706363;82;21049;-41
2022/11/05 09:25:03;;;;;;;17.35;13.32;;;;;;;9.04;71.40;99781.17;1746838;82;21001;-41
2022/11/05 09:27:30;;;;;;;18.62;15.03;;;;;;;9.05;71.45;99783.31;1746928;82;21075;-41
2022/11/05 09:29:57;;;;;;;18.77;14.53;;;;;;;9.03;71.38;99776.09;1746882;82;21141;-41
2022/11/05 09:32:24;;;;;;;20.23;15.70;;;;;;;9.00;71.69;99769.45;1746686;82;20969;-41
2022/11/05 09:34:51;;;;;;;22.32;14.98;;;;;;;9.00;71.84;99774.86;1746748;82;21294;-41
2022/11/05 09:37:18;;;;;;;19.07;15.30;;;;;;;9.07;71.89;99774.28;1746860;82;21565;-41
2022/11/05 09:39:44;;;;;;;19.80;15.58;;;;;;;9.18;71.74;99785.44;1747069;82;21036;-41
2022/11/05 09:42:14;;;;;;;20.35;16.80;;;;;;;9.15;71.43;99782.27;1747068;82;21219;-41
2022/11/05 09:44:54;;;;;;;22.07;16.12;;;;;;;9.09;71.58;99792.33;1757539;81;21036;-41
2022/11/05 09:47:34;;;;;;;21.95;16.42;;;;;;;9.07;71.77;99791.30;1764178;81;21030;-41
2022/11/05 09:50:07;;;;;;;22.22;16.42;;;;;;;9.06;71.64;99792.98;1762180;81;21013;-41
2022/11/05 09:52:35;;;;;;;24.15;16.42;;;;;;;9.08;71.52;99797.50;1764196;81;21040;-40
2022/11/05 09:55:05;;;;;;;20.45;16.67;;;;;;;9.07;71.51;99795.92;1764148;81;21183;-41
2022/11/05 09:57:47;;;;;;;22.02;16.25;;;;;;;9.05;71.70;99804.36;1761519;81;21019;-41
2022/11/05 10:00:16;;;;;;;22.00;17.05;;;;;;;9.08;71.95;99800.20;1763916;81;21067;-41
2022/11/05 10:02:54;;;;;;;22.22;16.52;;;;;;;9.07;71.69;99799.97;1764086;81;20952;-41
2022/11/05 10:05:23;;;;;;;21.45;16.70;;;;;;;9.02;71.94;99800.98;1764162;81;21001;-41
2022/11/05 10:08:06;;;;;;;22.17;16.62;;;;;;;9.06;72.05;99802.45;1763900;81;21866;-41
2022/11/05 10:10:42;;;;;;;23.42;17.00;;;;;;;9.10;71.90;99809.55;1763971;81;20964;-41
2022/11/05 10:13:28;;;;;;;26.25;19.23;;;;;;;9.10;71.94;99812.84;1763748;81;21546;-41
2022/11/05 10:16:09;;;;;;;23.87;18.02;;;;;;;9.06;72.18;99815.41;1763999;81;21079;-41
2022/11/05 10:18:40;;;;;;;26.42;18.67;;;;;;;9.02;72.33;99806.96;1747527;81;20981;-41
2022/11/05 10:21:15;;;;;;;25.27;18.20;;;;;;;8.93;72.49;99807.08;1764171;81;21505;-41
2022/11/05 10:23:44;;;;;;;21.35;16.77;;;;;;;8.93;72.94;99806.28;1763963;81;21028;-41
2022/11/05 10:26:20;;;;;;;21.15;17.32;;;;;;;9.02;72.99;99815.07;1764471;81;20960;-41
2022/11/05 10:28:47;;;;;;;23.62;18.27;;;;;;;9.05;72.94;99827.34;1764077;81;21009;-40
2022/11/05 10:31:19;;;;;;;24.90;19.25;;;;;;;9.05;73.20;99821.94;1761319;81;20980;-41
2022/11/05 10:33:53;;;;;;;24.47;19.02;;;;;;;9.08;73.04;99817.23;1763750;81;21291;-41
2022/11/05 10:36:27;;;;;;;25.30;18.77;;;;;;;9.07;73.14;99808.09;1763965;81;20989;-41
2022/11/05 10:38:58;;;;;;;23.73;17.92;;;;;;;9.07;73.27;99804.03;1763962;81;20992;-41
2022/11/05 10:41:46;;;;;;;23.80;18.25;;;;;;;9.14;73.05;99801.00;1763897;81;21035;-41
2022/11/05 10:44:36;;;;;;;26.60;20.35;;;;;;;9.18;73.21;99796.26;1749184;81;21089;-41
2022/11/05 10:47:29;;;;;;;28.17;21.25;;;;;;;9.18;72.97;99788.14;1746848;82;21522;-41
2022/11/05 10:49:59;;;;;;;28.12;19.00;;;;;;;9.14;72.94;99802.36;1746466;82;21012;-41
2022/11/05 10:52:33;;;;;;;24.00;17.17;;;;;;;9.14;72.92;99814.53;1747049;82;20922;-41
2022/11/05 10:55:04;;;;;;;23.70;18.77;;;;;;;9.23;72.85;99810.91;1746800;82;21037;-41
2022/11/05 10:57:37;;;;;;;22.90;19.00;;;;;;;9.26;72.88;99808.87;1748483;82;21121;-41
2022/11/05 11:00:18;;;;;;;20.23;16.97;;;;;;;9.28;72.98;99807.98;1746785;82;21228;-40
2022/11/05 11:03:00;;;;;;;24.72;18.60;;;;;;;9.28;72.94;99815.53;1747018;82;21605;-41
2022/11/05 11:05:35;;;;;;;20.12;15.70;;;;;;;9.29;72.91;99827.94;1747073;82;20979;-41
2022/11/05 11:08:13;;;;;;;20.35;16.12;;;;;;;9.38;72.75;99829.16;1746572;82;21004;-41
2022/11/05 11:10:59;;;;;;;23.27;17.65;;;;;;;9.46;72.44;99825.55;1747199;82;21037;-41
2022/11/05 11:13:52;;;;;;;22.05;17.65;;;;;;;9.47;72.36;99828.48;1747009;82;21229;-40
2022/11/05 11:16:23;;;;;;;24.43;19.15;;;;;;;9.50;72.36;99822.38;1698803;82;20898;-41
2022/11/05 11:19:02;;;;;;;28.55;20.97;;;;;;;9.52;72.42;99829.04;1747262;82;21530;-41
2022/11/05 11:21:31;;;;;;;27.20;20.57;;;;;;;9.51;72.08;99826.66;1747231;82;21004;-41
2022/11/05 11:24:02;;;;;;;26.07;20.55;;;;;;;9.49;71.92;99822.14;1746940;82;20955;-41
2022/11/05 11:26:36;;;;;;;29.77;21.37;;;;;;;9.48;72.13;99821.94;1746936;82;21228;-41
2022/11/05 11:29:23;;;;;;;28.98;21.62;;;;;;;9.47;72.40;99812.24;1746984;82;21526;-41
2022/11/05 11:31:52;;;;;;;27.55;21.40;;;;;;;9.46;72.37;99824.19;1747007;82;21644;-41
2022/11/05 11:34:35;;;;;;;29.85;22.60;;;;;;;9.41;72.48;99824.42;1701014;82;21648;-41
2022/11/05 11:37:10;;;;;;;30.32;20.75;;;;;;;9.37;72.57;99820.81;1746971;82;21049;-41
2022/11/05 15:03:00;;;;;;;40.23;26.93;;;;;;;8.55;79.85;99951.15;1843290;76;22268;-40
2022/11/05 15:05:49;;;;;;;44.08;28.75;;;;;;;8.64;79.03;99947.80;1806283;79;20911;-41
2022/11/05 15:08:38;;;;;;;46.90;30.05;;;;;;;8.63;78.76;99948.92;1801658;79;21487;-41
2022/11/05 15:11:26;;;;;;;48.95;29.70;;;;;;;8.59;78.22;99956.12;1801549;79;20966;-40
2022/11/05 15:13:58;;;;;;;47.53;28.62;;;;;;;8.55;77.92;99949.80;1779572;79;21005;-40
2022/11/05 15:16:37;;;;;;;41.42;28.52;;;;;;;8.52;77.69;99959.93;1801661;79;20966;-41
2022/11/05 15:19:23;;;;;;;46.18;29.70;;;;;;;8.53;77.34;99958.78;1801809;79;21435;-40
2022/11/05 15:21:52;;;;;;;45.83;31.17;;;;;;;8.53;77.36;99953.38;1781389;79;21189;-41
2022/11/05 15:24:19;;;;;;;47.23;29.02;;;;;;;8.50;77.13;99952.70;1801542;79;20980;-41
2022/11/05 15:27:09;;;;;;;42.38;27.35;;;;;;;8.45;76.87;99958.30;1781531;79;20954;-41
2022/11/05 15:29:36;;;;;;;43.73;28.55;;;;;;;8.41;76.98;99962.23;1801484;79;20922;-41
2022/11/05 15:32:04;;;;;;;41.02;28.65;;;;;;;8.42;76.93;99961.68;1801499;79;21076;-41
2022/11/05 15:34:34;;;;;;;44.65;29.70;;;;;;;8.43;76.85;99961.89;1801772;79;21075;-41
2022/11/05 15:37:12;;;;;;;41.25;28.02;;;;;;;8.41;76.83;99966.29;1801424;79;21562;-41
2022/11/05 15:39:41;;;;;;;45.35;28.20;;;;;;;8.42;76.79;99966.52;1800639;79;20993;-41
2022/11/05 15:42:21;;;;;;;42.33;28.52;;;;;;;8.46;76.57;99972.05;1801413;79;20969;-41
2022/11/05 15:44:50;;;;;;;41.23;27.85;;;;;;;8.54;76.20;99965.78;1801612;79;21034;-40
2022/11/05 15:47:24;;;;;;;29.85;21.30;;;;;;;8.53;76.03;99965.55;1801695;79;21248;-41
2022/11/05 15:49:54;;;;;;;43.95;29.95;;;;;;;8.50;75.92;99966.22;1801521;79;21669;-40
2022/11/05 15:52:25;;;;;;;42.53;27.13;;;;;;;8.48;76.05;99968.44;1801429;79;21661;-43
2022/11/05 15:55:14;;;;;;;38.78;26.35;;;;;;;8.52;75.92;99961.28;1788814;79;20954;-41
2022/11/05 15:57:47;;;;;;;;;;;;;;;8.60;75.65;99965.25;1804200;79;21005;-41
2022/11/05 16:00:22;;;;;;;38.30;26.48;;;;;;;8.60;75.42;99961.77;1801533;79;21119;-41
2022/11/05 16:03:26;;;;;;;41.18;27.98;;;;;;;8.47;75.53;99961.48;1822912;78;21600;-41
2022/11/05 16:05:53;;;;;;;43.20;26.80;;;;;;;8.42;75.42;99963.03;1826783;78;20961;-41
2022/11/05 16:08:26;;;;;;;43.33;27.37;;;;;;;8.34;75.64;99975.47;1826868;78;21409;-41
2022/11/05 16:10:58;;;;;;;41.48;28.55;;;;;;;8.34;75.68;99973.33;1827148;78;20907;-41
2022/11/05 16:13:38;;;;;;;43.92;29.55;;;;;;;8.33;75.43;99971.77;1826724;78;21222;-41
2022/11/05 16:16:16;;;;;;;42.13;28.27;;;;;;;8.29;75.66;99977.80;1826402;78;20938;-40
2022/11/05 16:18:44;;;;;;;37.98;24.25;;;;;;;8.27;75.79;99974.62;1826575;78;20970;-41
2022/11/05 16:21:17;;;;;;;41.73;26.75;;;;;;;8.24;75.83;99977.97;1826368;78;21014;-41
2022/11/05 16:23:57;;;;;;;41.25;27.40;;;;;;;8.28;75.69;99984.30;1799183;78;21519;-41
2022/11/05 16:26:40;;;;;;;44.40;28.70;;;;;;;8.33;75.33;99981.98;1826741;78;21122;-40
2022/11/05 16:29:42;;;;;;;45.48;31.07;;;;;;;8.30;75.35;99990.75;1826409;78;21061;-40
2022/11/05 16:32:26;;;;;;;44.55;29.75;;;;;;;8.24;75.49;99988.77;1825689;78;20994;-40
2022/11/05 16:34:59;;;;;;;38.80;25.43;;;;;;;8.22;75.55;99996.43;1826364;78;20998;-41
2022/11/05 16:37:28;;;;;;;46.73;31.07;;;;;;;8.24;75.50;99994.73;1826585;78;20987;-41
2022/11/05 16:39:55;;;;;;;47.15;31.65;;;;;;;8.33;75.54;99990.67;1826397;78;21824;-41
2022/11/05 16:42:36;;;;;;;43.92;30.20;;;;;;;8.06;75.23;99946.01;1826342;78;21617;-41
2022/11/05 16:45:04;;;;;;;52.13;31.05;;;;;;;8.38;75.35;99995.30;1826953;78;21481;-40
2022/11/05 16:47:33;;;;;;;43.63;28.57;;;;;;;8.37;75.15;99997.80;1831758;78;20964;-41
2022/11/05 16:50:00;;;;;;;39.92;26.00;;;;;;;8.37;75.16;100006.45;1831549;78;20992;-41
2022/11/05 16:52:28;;;;;;;36.90;23.65;;;;;;;8.35;75.05;100006.77;1831387;78;21183;-40
2022/11/05 16:54:54;;;;;;;39.38;24.87;;;;;;;8.43;74.81;100009.97;1831706;78;21003;-41
2022/11/05 16:57:28;;;;;;;38.80;25.00;;;;;;;8.46;74.70;100007.97;1831492;78;20960;-41
2022/11/05 16:59:57;;;;;;;40.30;26.85;;;;;;;8.49;74.55;100013.27;1831385;78;20960;-41
2022/11/05 17:02:25;;;;;;;38.75;24.82;;;;;;;8.47;74.25;100015.52;1791639;79;20981;-41
2022/11/05 17:04:51;;;;;;;38.65;23.38;;;;;;;8.40;74.22;100017.95;1813791;79;21220;-41
2022/11/05 17:07:18;;;;;;;39.50;22.98;;;;;;;8.37;74.09;100016.70;1813847;79;20925;-41
2022/11/05 17:09:45;;;;;;;33.83;22.60;;;;;;;8.39;74.05;100021.76;1813822;79;20949;-40
2022/11/05 17:12:12;;;;;;;38.20;25.10;;;;;;;8.38;74.08;100018.82;1813826;79;20969;-41
2022/11/05 17:14:40;;;;;;;36.42;24.37;;;;;;;8.36;74.09;100023.78;1813924;78;20961;-40
2022/11/05 17:17:07;;;;;;;35.20;24.63;;;;;;;8.33;74.16;100021.16;1813940;78;21216;-41
2022/11/05 17:19:34;;;;;;;37.33;24.18;;;;;;;8.32;74.38;100026.34;1813712;79;20925;-40